Time;durP1;ratioP1;P1;durP2;ratioP2;P2;SDS_P1;SDS_P2;PMS_P1;PMS_P2;Temp;Humidity;BMP_temperature;BMP_pressure;BME280_temperature;BME280_humidity;BME280_pressure;Samples;Min_cycle;Max_cycle;Signal;HPM_P1;HPM_P2
2021/03/09 00:00:23;;;;;;;4.93;2.60;;;;;;;-3.22;56.41;98775.50;1714861;83;21187;-58
2021/03/09 00:02:53;;;;;;;3.97;2.87;;;;;;;-3.28;56.47;98770.02;1723926;82;21165;-57
2021/03/09 00:05:23;;;;;;;3.80;2.60;;;;;;;-3.36;56.67;98762.91;1724273;83;21292;-55
2021/03/09 00:07:52;;;;;;;4.97;2.57;;;;;;;-3.39;57.07;98758.45;1724291;83;21150;-56
2021/03/09 00:10:21;;;;;;;3.60;2.60;;;;;;;-3.42;57.36;98766.45;1724240;83;21174;-57
2021/03/09 00:12:51;;;;;;;7.07;2.90;;;;;;;-3.48;57.76;98767.75;1724144;83;21633;-56
2021/03/09 00:15:21;;;;;;;3.80;2.43;;;;;;;-3.52;57.69;98767.64;1724032;83;21166;-56
2021/03/09 00:17:50;;;;;;;6.67;2.73;;;;;;;-3.55;58.49;98770.00;1724280;83;21173;-55
2021/03/09 00:20:20;;;;;;;4.77;2.80;;;;;;;-3.57;58.94;98771.04;1724319;82;21598;-54
2021/03/09 00:22:49;;;;;;;5.53;2.67;;;;;;;-3.60;59.08;98770.83;1724259;82;21189;-57
2021/03/09 00:25:19;;;;;;;3.50;2.70;;;;;;;-3.61;59.68;98779.94;1724222;83;21229;-56
2021/03/09 00:27:48;;;;;;;5.93;3.10;;;;;;;-3.62;60.11;98771.39;1724259;83;21170;-56
2021/03/09 00:30:19;;;;;;;4.50;2.83;;;;;;;-3.60;60.74;98775.98;1675584;83;21316;-56
2021/03/09 00:32:49;;;;;;;4.17;2.87;;;;;;;-3.63;61.23;98769.77;1724230;83;21531;-57
2021/03/09 00:35:19;;;;;;;5.70;2.70;;;;;;;-3.69;61.51;98763.80;1723979;83;21173;-56
2021/03/09 00:37:48;;;;;;;3.77;2.87;;;;;;;-3.71;61.91;98770.03;1724385;83;21150;-55
2021/03/09 00:40:18;;;;;;;5.50;3.00;;;;;;;-3.75;62.07;98765.09;1724069;83;21182;-55
2021/03/09 00:42:47;;;;;;;3.80;2.70;;;;;;;-3.78;62.43;98770.50;1724245;83;21189;-55
2021/03/09 00:45:17;;;;;;;7.90;3.53;;;;;;;-3.82;62.70;98762.66;1724162;83;21186;-56
2021/03/09 00:47:49;;;;;;;6.57;3.30;;;;;;;-3.81;63.00;98762.19;1722357;83;21130;-56
2021/03/09 00:50:18;;;;;;;5.17;3.17;;;;;;;-3.82;63.66;98772.95;1724026;83;21190;-55
2021/03/09 00:52:48;;;;;;;5.67;3.30;;;;;;;-3.80;63.83;98766.39;1724054;83;21173;-55
2021/03/09 00:55:18;;;;;;;8.70;3.20;;;;;;;-3.80;64.33;98763.81;1724207;83;21166;-59
2021/03/09 00:57:58;;;;;;;5.07;3.20;;;;;;;-3.79;64.78;98764.98;1724365;83;21193;-55
2021/03/09 01:00:29;;;;;;;6.72;3.60;;;;;;;-3.75;64.94;98774.59;1721019;83;21190;-55
2021/03/09 01:02:58;;;;;;;15.87;5.77;;;;;;;-3.72;64.97;98768.39;1710482;82;21170;-56
2021/03/09 01:05:28;;;;;;;11.97;4.77;;;;;;;-3.70;65.05;98774.23;1710730;84;21174;-57
2021/03/09 01:07:57;;;;;;;7.87;4.40;;;;;;;-3.68;65.11;98782.18;1710685;82;21314;-55
2021/03/09 01:10:27;;;;;;;6.00;3.80;;;;;;;-3.67;65.36;98779.13;1710670;84;21166;-57
2021/03/09 01:12:56;;;;;;;12.23;5.37;;;;;;;-3.67;65.86;98778.69;1710459;84;21170;-55
2021/03/09 01:15:26;;;;;;;16.67;6.17;;;;;;;-3.65;66.21;98779.38;1710463;83;21199;-56
2021/03/09 01:17:57;;;;;;;13.53;6.20;;;;;;;-3.64;66.54;98782.30;1709950;84;21297;-54
2021/03/09 01:20:27;;;;;;;13.53;5.97;;;;;;;-3.63;66.89;98785.70;1710756;84;21202;-54
2021/03/09 01:22:56;;;;;;;14.90;6.43;;;;;;;-3.64;67.26;98785.34;1710804;82;21143;-57
2021/03/09 01:25:26;;;;;;;14.57;6.17;;;;;;;-3.67;67.44;98783.84;1710572;83;21175;-55
2021/03/09 01:27:55;;;;;;;12.93;5.60;;;;;;;-3.68;67.59;98785.23;1710817;84;21178;-56
2021/03/09 01:30:25;;;;;;;12.43;4.97;;;;;;;-3.69;67.50;98782.31;1710704;84;21190;-56
2021/03/09 01:32:54;;;;;;;8.03;4.33;;;;;;;-3.71;67.16;98777.75;1710860;82;21207;-56
2021/03/09 01:35:25;;;;;;;6.60;3.97;;;;;;;-3.73;66.98;98776.56;1710581;82;21324;-56
2021/03/09 01:37:54;;;;;;;9.77;4.10;;;;;;;-3.75;67.06;98770.25;1710585;82;21143;-57
2021/03/09 01:40:24;;;;;;;9.50;3.60;;;;;;;-3.75;67.24;98772.02;1710549;82;21194;-57
2021/03/09 01:42:54;;;;;;;7.42;3.40;;;;;;;-3.78;67.45;98773.08;1710856;84;21155;-57
2021/03/09 01:45:23;;;;;;;5.70;3.30;;;;;;;-3.77;67.66;98768.75;1710686;84;21186;-55
2021/03/09 01:47:53;;;;;;;8.83;3.50;;;;;;;-3.81;67.65;98768.63;1710836;84;21190;-57
2021/03/09 01:50:22;;;;;;;5.83;3.20;;;;;;;-3.86;67.71;98777.98;1668341;84;21166;-56
2021/03/09 01:52:53;;;;;;;5.17;3.20;;;;;;;-3.88;67.60;98768.76;1691591;84;21138;-55
2021/03/09 01:55:23;;;;;;;7.40;3.30;;;;;;;-3.90;67.26;98774.47;1710799;82;21190;-57
2021/03/09 01:57:52;;;;;;;6.17;3.30;;;;;;;-3.93;67.01;98771.68;1710863;84;21170;-55
2021/03/09 02:00:23;;;;;;;4.03;2.90;;;;;;;-3.97;67.11;98784.43;1710523;83;21182;-58
2021/03/09 02:02:52;;;;;;;4.43;3.00;;;;;;;-3.98;67.25;98778.12;1710831;82;21597;-58
2021/03/09 02:05:21;;;;;;;8.63;3.33;;;;;;;-3.97;66.92;98786.19;1710553;84;21188;-54
2021/03/09 02:07:51;;;;;;;6.70;2.70;;;;;;;-3.96;67.03;98790.40;1710866;84;21205;-61
2021/03/09 02:10:20;;;;;;;4.80;3.23;;;;;;;-3.94;67.38;98791.13;1710854;84;21165;-59
2021/03/09 02:13:21;;;;;;;7.47;2.93;;;;;;;-3.93;66.95;98787.60;1710733;84;21174;-56
2021/03/09 02:16:03;;;;;;;3.50;2.60;;;;;;;-3.92;66.92;98791.81;1711081;84;21162;-54
2021/03/09 02:18:53;;;;;;;5.63;3.07;;;;;;;-3.89;66.46;98784.68;1710636;84;21386;-56
2021/03/09 02:21:47;;;;;;;7.27;2.90;;;;;;;-3.87;66.48;98789.23;1710597;84;21337;-57
2021/03/09 02:24:34;;;;;;;6.27;3.03;;;;;;;-3.83;66.22;98795.80;1710515;84;21158;-55
2021/03/09 02:27:36;;;;;;;7.20;3.23;;;;;;;-3.81;66.31;98790.52;1705557;84;21146;-60
2021/03/09 02:30:19;;;;;;;8.88;3.30;;;;;;;-3.75;65.77;98795.19;1710916;84;21578;-58
2021/03/09 02:33:16;;;;;;;7.60;3.37;;;;;;;-3.68;65.74;98793.77;1710868;84;21178;-55
2021/03/09 02:35:54;;;;;;;9.33;3.20;;;;;;;-3.64;65.56;98788.74;1710569;83;21154;-55
2021/03/09 02:38:24;;;;;;;8.57;3.30;;;;;;;-3.59;66.07;98796.13;1710835;84;21182;-59
2021/03/09 02:40:56;;;;;;;4.43;3.23;;;;;;;-3.52;66.17;98786.48;1691099;84;21150;-58
2021/03/09 02:43:27;;;;;;;6.90;3.37;;;;;;;-3.44;66.07;98790.22;1710872;84;21740;-57
2021/03/09 02:45:57;;;;;;;8.43;3.50;;;;;;;-3.33;65.71;98792.30;1710892;84;21308;-55
2021/03/09 02:48:29;;;;;;;11.78;4.20;;;;;;;-3.21;65.67;98801.66;1711081;84;21147;-55
2021/03/09 02:50:59;;;;;;;7.03;3.67;;;;;;;-3.08;65.67;98798.92;1710871;84;21556;-56
2021/03/09 02:53:32;;;;;;;6.23;3.37;;;;;;;-2.98;65.58;98795.95;1710753;84;21186;-54
2021/03/09 02:56:05;;;;;;;12.00;4.23;;;;;;;-2.86;65.50;98805.75;1710583;84;21166;-59
2021/03/09 02:58:34;;;;;;;8.67;4.50;;;;;;;-2.77;65.62;98804.17;1710584;84;21234;-55
2021/03/09 03:01:04;;;;;;;8.63;4.13;;;;;;;-2.69;65.86;98812.13;1712948;83;21154;-55
2021/03/09 03:03:34;;;;;;;9.83;4.23;;;;;;;-2.62;66.20;98815.03;1718523;82;21314;-55
2021/03/09 03:06:04;;;;;;;11.83;4.60;;;;;;;-2.59;66.04;98808.31;1718674;83;21198;-55
2021/03/09 03:08:34;;;;;;;9.10;3.80;;;;;;;-2.57;66.11;98807.25;1718743;83;21162;-56
2021/03/09 03:11:04;;;;;;;5.70;3.50;;;;;;;-2.54;66.21;98804.87;1718734;83;21166;-55
2021/03/09 03:13:33;;;;;;;6.67;3.50;;;;;;;-2.52;65.90;98809.47;1718465;83;21199;-56
2021/03/09 03:16:03;;;;;;;7.83;3.17;;;;;;;-2.53;66.05;98818.94;1718458;83;21177;-54
2021/03/09 03:18:41;;;;;;;8.53;3.87;;;;;;;-2.58;65.28;98814.66;1718684;83;21566;-56
2021/03/09 03:21:12;;;;;;;7.60;3.33;;;;;;;-2.73;65.62;98814.13;1718755;82;21158;-56
2021/03/09 03:23:41;;;;;;;6.37;3.35;;;;;;;-2.77;66.23;98818.37;1718600;83;21158;-55
2021/03/09 03:26:14;;;;;;;8.23;3.30;;;;;;;-2.77;66.54;98817.08;1718610;82;21178;-55
2021/03/09 03:28:45;;;;;;;13.20;4.33;;;;;;;-2.74;66.70;98819.42;1668696;83;21174;-55
2021/03/09 03:31:14;;;;;;;7.78;3.70;;;;;;;-2.74;66.68;98818.95;1718759;83;21126;-55
2021/03/09 03:33:44;;;;;;;9.90;3.83;;;;;;;-2.73;66.39;98818.00;1718567;82;21138;-56
2021/03/09 03:36:16;;;;;;;11.37;4.80;;;;;;;-2.77;66.65;98824.34;1718406;83;21150;-55
2021/03/09 03:38:46;;;;;;;10.10;4.60;;;;;;;-2.79;66.30;98823.66;1718442;83;21162;-56
2021/03/09 03:41:15;;;;;;;12.23;5.30;;;;;;;-2.83;66.12;98833.88;1718680;83;21170;-55
2021/03/09 03:43:45;;;;;;;15.40;6.57;;;;;;;-2.88;66.30;98835.18;1718693;83;21166;-55
2021/03/09 03:46:14;;;;;;;14.33;6.07;;;;;;;-2.94;66.68;98836.48;1718394;82;21339;-55
2021/03/09 03:48:46;;;;;;;23.77;9.47;;;;;;;-2.97;66.88;98833.70;1718700;83;21170;-55
2021/03/09 03:51:15;;;;;;;;;;;;;;;-3.00;67.21;98835.22;1721271;82;21740;-54
2021/03/09 03:54:27;;;;;;;31.63;16.13;;;;;;;-2.97;67.44;98837.56;1718697;83;20388;-55
2021/03/09 03:57:08;;;;;;;9.97;4.97;;;;;;;-2.95;67.70;98847.28;1718570;83;21324;-54
2021/03/09 03:59:39;;;;;;;8.80;4.80;;;;;;;-2.94;67.53;98850.20;1718207;83;21169;-55
2021/03/09 04:02:10;;;;;;;7.33;3.87;;;;;;;-2.95;67.54;98850.33;1721940;82;21174;-55
2021/03/09 04:04:41;;;;;;;6.60;4.00;;;;;;;-2.98;67.72;98859.15;1724043;82;21141;-59
2021/03/09 04:07:11;;;;;;;9.47;4.20;;;;;;;-2.97;67.63;98869.00;1724382;83;21609;-56
2021/03/09 04:09:42;;;;;;;9.43;4.17;;;;;;;-3.01;66.65;98856.80;1724515;83;21153;-56
2021/03/09 04:12:12;;;;;;;9.53;4.03;;;;;;;-3.10;65.86;98857.98;1675843;83;21557;-56
2021/03/09 04:14:42;;;;;;;10.73;4.00;;;;;;;-3.15;65.15;98861.39;1724128;83;21229;-55
2021/03/09 04:17:11;;;;;;;7.30;3.83;;;;;;;-3.21;65.04;98867.41;1724302;82;21173;-54
2021/03/09 04:19:41;;;;;;;10.33;4.33;;;;;;;-3.22;64.89;98865.75;1724352;83;21173;-54
2021/03/09 04:22:10;;;;;;;6.53;3.60;;;;;;;-3.25;65.05;98863.42;1724324;82;21174;-55
2021/03/09 04:24:40;;;;;;;6.43;3.80;;;;;;;-3.31;64.20;98877.27;1724281;83;21173;-55
2021/03/09 04:27:20;;;;;;;6.87;3.73;;;;;;;-3.36;64.19;98863.44;1724322;83;21177;-54
2021/03/09 04:29:41;;;;;;;7.30;3.63;;;;;;;-3.33;63.66;98868.81;1722961;83;21640;-55
2021/03/09 04:32:11;;;;;;;6.70;3.70;;;;;;;-3.34;63.65;98881.36;1724273;83;21209;-56
2021/03/09 04:34:40;;;;;;;9.10;3.80;;;;;;;-3.36;63.49;98876.80;1724302;83;21166;-57
2021/03/09 04:37:10;;;;;;;8.07;3.90;;;;;;;-3.39;63.39;98886.86;1724087;83;21325;-56
2021/03/09 04:39:42;;;;;;;9.00;3.87;;;;;;;-3.41;63.78;98886.17;1724075;83;21134;-58
2021/03/09 04:42:12;;;;;;;6.17;3.80;;;;;;;-3.43;63.28;98883.38;1724227;83;21157;-59
2021/03/09 04:44:41;;;;;;;7.73;4.07;;;;;;;-3.41;63.40;98884.06;1724150;83;21150;-56
2021/03/09 04:47:11;;;;;;;7.50;3.80;;;;;;;-3.37;62.59;98882.90;1724011;83;21324;-54
2021/03/09 04:49:41;;;;;;;8.70;4.10;;;;;;;-3.33;62.66;98897.98;1724280;83;21192;-55
2021/03/09 04:52:11;;;;;;;8.40;4.13;;;;;;;-3.37;62.89;98902.23;1724328;83;21578;-56
2021/03/09 04:54:41;;;;;;;8.57;4.40;;;;;;;-3.44;63.46;98894.59;1724231;83;21307;-55
2021/03/09 04:57:11;;;;;;;9.07;4.60;;;;;;;-3.45;64.27;98891.20;1724383;83;21137;-56
2021/03/09 04:59:40;;;;;;;11.40;4.83;;;;;;;-3.41;64.58;98902.93;1724342;83;21161;-57
2021/03/09 05:02:10;;;;;;;8.57;3.83;;;;;;;-3.33;65.05;98897.17;1717464;82;21192;-58
2021/03/09 05:04:40;;;;;;;6.23;3.60;;;;;;;-3.29;64.45;98888.27;1710962;83;21330;-58
2021/03/09 05:07:10;;;;;;;7.90;3.60;;;;;;;-3.26;64.11;98901.75;1710659;84;21134;-56
2021/03/09 05:09:40;;;;;;;12.53;5.60;;;;;;;-3.25;63.28;98899.52;1710958;82;21618;-57
2021/03/09 05:12:10;;;;;;;16.93;7.37;;;;;;;-3.23;63.01;98904.55;1710851;84;21178;-57
2021/03/09 05:14:40;;;;;;;14.27;6.73;;;;;;;-3.21;62.83;98901.40;1710617;84;21650;-57
2021/03/09 05:17:09;;;;;;;24.53;11.80;;;;;;;-3.15;62.97;98909.09;1710895;84;21186;-57
2021/03/09 05:19:39;;;;;;;20.43;9.33;;;;;;;-3.09;63.35;98907.36;1710599;82;21166;-58
2021/03/09 05:22:09;;;;;;;9.30;4.40;;;;;;;-3.03;63.72;98908.16;1710847;84;21178;-57
2021/03/09 05:24:38;;;;;;;6.93;3.93;;;;;;;-2.99;62.58;98909.55;1710638;84;21162;-58
2021/03/09 05:27:09;;;;;;;8.83;4.10;;;;;;;-2.94;61.84;98912.58;1710581;83;21170;-55
2021/03/09 05:29:39;;;;;;;9.20;4.47;;;;;;;-2.90;61.84;98912.70;1711006;84;21130;-55
2021/03/09 05:32:08;;;;;;;10.33;4.70;;;;;;;-2.89;62.22;98909.65;1710870;84;21169;-55
2021/03/09 05:34:38;;;;;;;10.70;4.97;;;;;;;-2.87;61.37;98920.66;1710804;84;21186;-56
2021/03/09 05:37:09;;;;;;;13.97;5.40;;;;;;;-2.93;61.24;98928.41;1710608;84;21170;-55
2021/03/09 05:39:39;;;;;;;14.78;6.03;;;;;;;-2.95;61.88;98931.11;1711057;82;21582;-56
2021/03/09 05:42:13;;;;;;;13.70;6.03;;;;;;;-2.93;61.57;98941.30;1710758;82;21186;-55
2021/03/09 05:44:48;;;;;;;12.13;5.20;;;;;;;-2.92;61.27;98939.54;1710811;82;21319;-57
2021/03/09 05:47:17;;;;;;;8.63;4.40;;;;;;;-2.90;61.44;98944.13;1710581;83;21240;-58
2021/03/09 05:49:48;;;;;;;9.23;4.57;;;;;;;-2.86;60.93;98946.83;1710609;83;21139;-59
2021/03/09 05:52:18;;;;;;;10.23;4.03;;;;;;;-2.86;61.24;98957.15;1710545;83;21162;-59
2021/03/09 05:54:49;;;;;;;8.68;4.12;;;;;;;-2.81;60.55;98957.58;1710788;84;21229;-59
2021/03/09 05:57:18;;;;;;;9.60;3.90;;;;;;;-2.80;59.99;98953.61;1710896;84;21135;-60
2021/03/09 05:59:50;;;;;;;7.65;3.67;;;;;;;-2.79;60.07;98955.25;1710644;84;21146;-61
2021/03/09 06:02:19;;;;;;;13.33;4.70;;;;;;;-2.79;60.00;98953.95;1715843;82;21150;-58
2021/03/09 06:04:51;;;;;;;10.40;4.80;;;;;;;-2.75;60.64;98957.94;1723593;83;21283;-54
2021/03/09 06:07:21;;;;;;;8.50;4.50;;;;;;;-2.70;60.46;98954.50;1693636;83;21605;-55
2021/03/09 06:09:51;;;;;;;10.07;4.17;;;;;;;-2.62;60.12;98951.34;1712816;83;21168;-57
2021/03/09 06:12:25;;;;;;;7.13;4.20;;;;;;;-2.55;59.78;98959.41;1712697;84;21140;-56
2021/03/09 06:15:05;;;;;;;8.85;3.50;;;;;;;-2.50;59.82;98960.68;1714955;83;21296;-57
2021/03/09 06:17:41;;;;;;;5.57;3.47;;;;;;;-2.44;58.71;98969.70;1724271;83;21174;-68
2021/03/09 06:20:21;;;;;;;;;;;;;;;-2.45;58.01;98963.72;1701155;83;21394;-57
2021/03/09 06:22:58;;;;;;;25.70;11.03;;;;;;;-2.49;58.01;98962.79;1723374;82;20440;-56
2021/03/09 06:25:37;;;;;;;9.53;4.10;;;;;;;-2.45;59.53;98974.52;1724062;83;21589;-56
2021/03/09 06:28:08;;;;;;;9.53;4.17;;;;;;;-2.28;58.76;98975.75;1724383;83;21173;-54
2021/03/09 06:30:39;;;;;;;9.57;3.90;;;;;;;-2.19;58.18;98982.74;1724386;83;21150;-56
2021/03/09 06:33:09;;;;;;;8.77;4.10;;;;;;;-2.11;57.35;98985.55;1720195;82;21162;-56
2021/03/09 06:35:45;;;;;;;8.23;3.93;;;;;;;-1.99;57.30;98989.71;1718093;82;21169;-66
2021/03/09 06:38:27;;;;;;;9.87;3.97;;;;;;;-1.90;56.73;98994.59;1751419;82;21122;-56
2021/03/09 06:41:10;;;;;;;;;;;;;;;-1.88;56.44;98990.95;1734173;82;21155;-59
2021/03/09 06:43:41;;;;;;;10.73;4.20;;;;;;;-1.85;56.37;98991.16;1739286;82;20255;-59
2021/03/09 06:46:21;;;;;;;6.25;3.15;;;;;;;-1.76;55.43;99004.63;1716794;82;21176;-54
2021/03/09 06:49:02;;;;;;;10.17;4.33;;;;;;;-1.72;54.75;99001.30;1712047;82;21150;-52
2021/03/09 06:51:38;;;;;;;9.27;3.60;;;;;;;-1.72;53.97;99009.91;1674531;83;21355;-56
2021/03/09 06:54:26;;;;;;;7.37;3.50;;;;;;;-1.73;53.81;99019.87;1699783;83;21284;-53
2021/03/09 06:56:56;;;;;;;7.97;3.80;;;;;;;-1.75;54.34;99008.84;1723590;83;21134;-55
2021/03/09 06:59:30;;;;;;;6.50;3.60;;;;;;;-1.70;52.92;99011.06;1694067;82;21598;-54
2021/03/09 07:02:12;;;;;;;8.03;3.80;;;;;;;-1.59;53.51;99021.81;1701081;83;21175;-57
2021/03/09 07:04:51;;;;;;;6.83;3.53;;;;;;;-1.41;53.37;99018.99;1717370;82;21209;-57
2021/03/09 07:07:30;;;;;;;6.63;3.57;;;;;;;-1.25;52.71;99013.37;1726890;81;21158;-50
2021/03/09 07:10:12;;;;;;;9.00;3.80;;;;;;;-1.18;52.68;99025.64;1673125;84;21578;-54
2021/03/09 07:12:43;;;;;;;7.13;3.30;;;;;;;-1.15;51.58;99029.73;1712148;82;21158;-53
2021/03/09 07:15:14;;;;;;;;;;;;;;;-1.09;50.93;99024.88;1742054;81;21212;-56
2021/03/09 07:17:46;;;;;;;9.20;3.50;;;;;;;-1.08;51.74;99023.11;1715557;84;20259;-54
2021/03/09 07:20:16;;;;;;;5.80;3.00;;;;;;;-0.98;50.95;99024.42;1715525;82;21172;-61
2021/03/09 07:22:50;;;;;;;5.23;3.63;;;;;;;-0.95;50.36;99019.00;1714873;84;21160;-56
2021/03/09 07:25:21;;;;;;;8.20;3.80;;;;;;;-1.02;51.10;99025.66;1688478;84;21185;-55
2021/03/09 07:28:05;;;;;;;7.00;3.20;;;;;;;-0.94;51.29;99020.64;1715442;84;21217;-54
2021/03/09 07:30:39;;;;;;;7.93;4.13;;;;;;;-0.86;49.75;99035.02;1715480;84;21157;-55
2021/03/09 07:33:07;;;;;;;9.33;4.07;;;;;;;-0.94;50.29;99029.22;1715712;84;21188;-54
2021/03/09 07:35:37;;;;;;;10.80;3.97;;;;;;;-0.97;50.77;99032.08;1715892;84;21173;-54
2021/03/09 07:38:06;;;;;;;10.70;4.10;;;;;;;-1.03;50.81;99018.81;1715432;84;21204;-60
2021/03/09 07:40:36;;;;;;;7.73;3.67;;;;;;;-1.16;50.52;99039.27;1719969;82;21192;-56
2021/03/09 07:43:09;;;;;;;10.73;4.07;;;;;;;-1.36;50.68;99022.02;1721261;82;21166;-57
2021/03/09 07:45:38;;;;;;;8.57;3.97;;;;;;;-1.43;51.74;99017.02;1744304;82;21594;-56
2021/03/09 07:48:21;;;;;;;5.97;4.10;;;;;;;-1.35;51.19;99029.64;1741642;82;21207;-51
2021/03/09 07:50:57;;;;;;;9.17;4.33;;;;;;;-1.31;51.74;99026.81;1700755;83;21146;-55
2021/03/09 07:53:26;;;;;;;7.10;4.30;;;;;;;-1.29;51.38;99033.48;1685156;83;21152;-61
2021/03/09 07:56:16;;;;;;;7.70;3.50;;;;;;;-1.23;51.46;99019.22;1696193;84;21203;-55
2021/03/09 07:58:44;;;;;;;7.33;3.30;;;;;;;-1.10;51.69;99023.70;1686514;84;21195;-56
2021/03/09 08:01:13;;;;;;;6.87;3.70;;;;;;;-1.03;51.11;99017.08;1696138;84;21618;-56
2021/03/09 08:03:44;;;;;;;7.33;3.87;;;;;;;-0.94;51.58;99027.11;1700012;83;21750;-58
2021/03/09 08:06:16;;;;;;;12.40;5.27;;;;;;;-0.82;51.56;99027.35;1682862;83;22861;-56
2021/03/09 08:08:53;;;;;;;11.33;5.20;;;;;;;-0.72;51.38;99024.33;1689526;82;21167;-58
2021/03/09 08:11:31;;;;;;;9.17;4.53;;;;;;;-0.69;50.79;99033.58;1731464;82;21182;-54
2021/03/09 08:14:13;;;;;;;6.40;4.33;;;;;;;-0.68;50.08;99038.66;1736884;82;21213;-58
2021/03/09 08:16:43;;;;;;;7.93;3.90;;;;;;;-0.58;49.83;99036.07;1715487;82;21206;-56
2021/03/09 08:19:27;;;;;;;7.67;3.83;;;;;;;-0.50;49.68;99043.20;1725041;82;21162;-56
2021/03/09 08:22:01;;;;;;;6.30;3.60;;;;;;;-0.48;49.31;99039.52;1719274;82;21576;-53
2021/03/09 08:24:48;;;;;;;5.03;3.60;;;;;;;-0.50;49.92;99028.48;1720814;82;21231;-58
2021/03/09 08:27:33;;;;;;;11.30;4.27;;;;;;;-0.40;49.83;99040.13;1737836;82;21170;-55
2021/03/09 08:30:25;;;;;;;10.03;4.33;;;;;;;-0.42;49.82;99035.57;1750241;82;21158;-55
2021/03/09 08:33:27;;;;;;;7.87;3.70;;;;;;;-0.53;49.70;99032.61;1749880;81;21173;-54
2021/03/09 08:35:57;;;;;;;9.60;4.40;;;;;;;-0.53;50.08;99030.02;1702029;82;21176;-55
2021/03/09 08:38:34;;;;;;;7.43;3.90;;;;;;;-0.49;50.11;99034.47;1693381;83;21306;-57
2021/03/09 08:41:07;;;;;;;6.73;3.27;;;;;;;-0.56;49.45;99040.66;1717272;82;21166;-53
2021/03/09 08:43:41;;;;;;;;;;;;;;;-0.66;47.83;99040.63;1675806;82;21670;-55
2021/03/09 08:46:12;;;;;;;17.03;5.40;;;;;;;-0.68;48.00;99036.55;1698389;82;20157;-50
2021/03/09 08:48:49;;;;;;;6.45;2.87;;;;;;;-0.67;47.47;99055.82;1687049;84;21354;-50
2021/03/09 08:51:41;;;;;;;6.60;3.60;;;;;;;-0.79;46.54;99049.11;1681188;84;21208;-55
2021/03/09 08:54:18;;;;;;;5.17;3.23;;;;;;;-1.02;47.60;99046.36;1670011;84;21144;-54
2021/03/09 08:56:50;;;;;;;7.90;3.80;;;;;;;-1.03;47.89;99050.72;1692186;82;21215;-57
2021/03/09 08:59:46;;;;;;;6.53;3.57;;;;;;;-0.90;48.18;99046.61;1745271;81;21292;-55
2021/03/09 09:02:24;;;;;;;6.57;3.20;;;;;;;-0.74;48.21;99045.66;1744741;81;21213;-53
2021/03/09 09:05:07;;;;;;;5.73;3.43;;;;;;;-0.68;47.50;99040.42;1744721;82;21606;-53
2021/03/09 09:07:41;;;;;;;5.97;3.20;;;;;;;-0.77;47.35;99040.72;1744655;82;21119;-54
2021/03/09 09:10:22;;;;;;;6.37;3.63;;;;;;;-0.72;47.18;99054.58;1738163;82;21637;-56
2021/03/09 09:13:01;;;;;;;5.80;3.00;;;;;;;-0.70;47.41;99056.06;1714495;82;21201;-58
2021/03/09 09:15:32;;;;;;;5.13;3.10;;;;;;;-0.59;46.24;99053.86;1715350;82;21639;-54
2021/03/09 09:18:06;;;;;;;11.40;4.37;;;;;;;-0.42;46.88;99039.45;1684150;82;21169;-53
2021/03/09 09:20:44;;;;;;;4.77;3.17;;;;;;;-0.27;47.77;99056.27;1696643;82;21188;-52
2021/03/09 09:23:27;;;;;;;8.13;3.60;;;;;;;-0.29;46.21;99045.20;1721973;82;21159;-57
2021/03/09 09:26:00;;;;;;;7.77;3.40;;;;;;;-0.47;46.02;99051.98;1708896;82;21360;-57
2021/03/09 09:28:35;;;;;;;5.47;3.00;;;;;;;-0.61;46.03;99046.23;1702405;84;21199;-53
2021/03/09 09:31:12;;;;;;;10.77;5.10;;;;;;;-0.63;46.33;99055.91;1694691;85;21204;-53
2021/03/09 09:33:50;;;;;;;8.63;4.43;;;;;;;-0.45;46.79;99061.27;1695852;82;21621;-52
2021/03/09 09:36:44;;;;;;;6.07;3.40;;;;;;;-0.33;46.14;99049.03;1680813;85;21202;-56
2021/03/09 09:39:18;;;;;;;10.73;4.63;;;;;;;-0.37;46.00;99067.89;1686421;82;21163;-54
2021/03/09 09:41:59;;;;;;;11.25;4.25;;;;;;;-0.27;46.67;99067.92;1725770;82;21143;-55
2021/03/09 09:44:32;;;;;;;6.57;3.50;;;;;;;-0.08;46.47;99064.53;1715128;82;21196;-54
2021/03/09 09:47:03;;;;;;;;;;;;;;;-0.03;45.13;99059.29;1708515;82;21185;-55
2021/03/09 09:49:33;;;;;;;7.17;3.77;;;;;;;-0.03;45.86;99073.54;1709806;82;20569;-53
2021/03/09 09:52:21;;;;;;;6.43;3.23;;;;;;;-0.10;45.51;99075.04;1705042;82;21807;-54
2021/03/09 09:54:54;;;;;;;6.57;3.50;;;;;;;-0.15;45.78;99078.51;1688958;82;21203;-59
2021/03/09 09:57:24;;;;;;;8.60;4.30;;;;;;;-0.22;45.88;99069.64;1672440;82;21742;-58
2021/03/09 09:59:53;;;;;;;4.73;2.70;;;;;;;-0.20;45.62;99051.36;1713772;82;21211;-56
2021/03/09 10:02:23;;;;;;;5.70;3.60;;;;;;;-0.24;45.64;99075.41;1686656;84;21209;-55
2021/03/09 10:04:53;;;;;;;6.47;3.67;;;;;;;-0.35;46.22;99066.45;1708341;82;21212;-58
2021/03/09 10:07:23;;;;;;;5.50;2.90;;;;;;;-0.34;46.79;99065.05;1730172;82;21210;-55
2021/03/09 10:10:07;;;;;;;6.33;3.23;;;;;;;-0.32;46.19;99063.14;1731229;82;21154;-56
2021/03/09 10:12:39;;;;;;;4.70;2.90;;;;;;;-0.39;46.39;99071.10;1742752;82;21356;-56
2021/03/09 10:15:09;;;;;;;4.80;3.20;;;;;;;-0.51;46.16;99082.52;1734978;82;21167;-58
2021/03/09 10:17:38;;;;;;;5.20;3.50;;;;;;;-0.69;46.71;99069.83;1724296;82;21742;-56
2021/03/09 10:20:22;;;;;;;5.60;3.67;;;;;;;-0.74;46.84;99080.60;1730228;82;21276;-58
2021/03/09 10:23:06;;;;;;;5.07;3.00;;;;;;;-0.75;47.24;99069.88;1698736;82;21222;-58
2021/03/09 10:25:41;;;;;;;5.87;3.47;;;;;;;-0.64;46.83;99063.79;1716463;82;21215;-56
2021/03/09 10:28:10;;;;;;;17.17;5.27;;;;;;;-0.62;47.54;99076.15;1744906;82;21313;-57
2021/03/09 10:30:43;;;;;;;8.03;3.77;;;;;;;-0.55;47.16;99075.96;1744882;82;21198;-57
2021/03/09 10:33:13;;;;;;;5.67;3.57;;;;;;;-0.47;47.13;99084.36;1744570;81;21179;-56
2021/03/09 10:36:10;;;;;;;9.40;3.23;;;;;;;-0.41;47.32;99079.46;1734887;82;21167;-56
2021/03/09 10:38:39;;;;;;;5.67;3.30;;;;;;;-0.45;47.56;99084.58;1744711;82;21292;-55
2021/03/09 10:41:24;;;;;;;8.77;3.70;;;;;;;-0.49;47.49;99090.16;1744927;82;21645;-56
2021/03/09 10:43:54;;;;;;;4.90;2.77;;;;;;;-0.54;48.25;99094.42;1716256;82;21212;-55
2021/03/09 10:46:24;;;;;;;5.83;3.40;;;;;;;-0.63;46.50;99099.08;1731587;82;21206;-55
2021/03/09 10:48:54;;;;;;;6.00;3.50;;;;;;;-0.88;47.31;99102.45;1715481;82;21194;-56
2021/03/09 10:51:24;;;;;;;9.60;4.93;;;;;;;-0.97;47.11;99094.19;1744743;82;21194;-56
2021/03/09 10:53:54;;;;;;;5.63;3.63;;;;;;;-0.88;48.24;99095.98;1744946;81;21581;-55
2021/03/09 10:56:24;;;;;;;4.57;3.00;;;;;;;-0.74;47.80;99072.02;1744888;82;21192;-56
2021/03/09 10:58:54;;;;;;;6.20;3.43;;;;;;;-0.63;46.63;99097.78;1741005;82;21206;-58
2021/03/09 11:01:23;;;;;;;12.17;5.33;;;;;;;-0.60;46.78;99104.02;1715263;84;21180;-58
2021/03/09 11:03:53;;;;;;;11.47;5.47;;;;;;;-0.58;48.60;99093.04;1715017;83;21212;-59
2021/03/09 11:06:23;;;;;;;4.83;3.47;;;;;;;-0.49;48.05;99095.33;1715237;84;21216;-57
2021/03/09 11:08:53;;;;;;;7.97;4.00;;;;;;;-0.55;46.69;99100.56;1714564;84;21201;-58
2021/03/09 11:11:22;;;;;;;6.17;3.47;;;;;;;-0.65;46.88;99097.92;1715178;82;21205;-58
2021/03/09 11:13:52;;;;;;;11.43;4.90;;;;;;;-0.67;47.64;99093.36;1714956;84;21358;-54
2021/03/09 11:16:23;;;;;;;10.03;3.40;;;;;;;-0.58;48.61;99099.03;1725932;82;21197;-58
2021/03/09 11:18:53;;;;;;;;;;;;;;;-0.47;47.87;99102.48;1740058;82;21189;-53
2021/03/09 11:21:22;;;;;;;6.63;3.20;;;;;;;-0.37;46.97;99099.45;1737915;82;20393;-52
2021/03/09 11:23:52;;;;;;;7.63;3.70;;;;;;;-0.31;47.07;99089.86;1737590;82;21126;-55
2021/03/09 11:26:22;;;;;;;11.07;3.60;;;;;;;-0.36;47.44;99082.95;1737472;82;21161;-60
2021/03/09 11:28:53;;;;;;;11.45;4.40;;;;;;;-0.32;46.36;99101.17;1738110;82;22109;-54
2021/03/09 11:31:22;;;;;;;20.03;7.07;;;;;;;-0.24;46.42;99087.07;1737745;82;21161;-57
2021/03/09 11:33:53;;;;;;;7.57;3.87;;;;;;;-0.09;46.43;99098.70;1734087;82;21201;-55
2021/03/09 11:36:22;;;;;;;11.57;4.73;;;;;;;-0.05;45.19;99083.23;1728758;82;21118;-54
2021/03/09 11:38:51;;;;;;;12.40;5.60;;;;;;;-0.06;45.00;99080.76;1737773;82;21617;-53
2021/03/09 11:41:21;;;;;;;8.13;4.20;;;;;;;-0.10;46.03;99089.30;1737926;82;21197;-55
2021/03/09 11:43:50;;;;;;;5.63;3.63;;;;;;;-0.05;45.47;99087.13;1718457;82;21174;-53
2021/03/09 11:46:21;;;;;;;9.38;3.98;;;;;;;-0.08;45.43;99086.08;1724609;82;21546;-56
2021/03/09 11:48:52;;;;;;;9.83;4.40;;;;;;;-0.20;46.40;99075.98;1737379;82;21130;-61
2021/03/09 11:51:22;;;;;;;5.55;3.80;;;;;;;-0.28;47.28;99068.88;1719626;82;21145;-60
2021/03/09 11:53:52;;;;;;;11.08;4.28;;;;;;;-0.34;47.24;99098.73;1738003;82;21118;-56
2021/03/09 11:56:22;;;;;;;8.90;4.30;;;;;;;-0.46;46.82;99092.02;1700537;82;21615;-68
2021/03/09 11:58:55;;;;;;;6.43;3.80;;;;;;;-0.56;46.60;99084.69;1728023;82;21133;-61
2021/03/09 12:01:29;;;;;;;13.97;5.30;;;;;;;-0.57;46.99;99087.75;1716164;82;21749;-62